Time;durP1;ratioP1;P1;durP2;ratioP2;P2;SDS_P1;SDS_P2;PMS_P1;PMS_P2;Temp;Humidity;BMP_temperature;BMP_pressure;BME280_temperature;BME280_humidity;BME280_pressure;Samples;Min_cycle;Max_cycle;Signal;HPM_P1;HPM_P2
2021/01/19 00:01:53;;;;;;;;;;;;;;;16.61;60.16;101753.97;5036025;28;1762;-54
2021/01/19 00:04:18;;;;;;;;;;;;;;;16.61;59.63;101756.63;5035626;28;1671;-55
2021/01/19 00:06:44;;;;;;;;;;;;;;;16.61;59.98;101767.31;5036103;28;1772;-54
2021/01/19 00:09:09;;;;;;;;;;;;;;;16.56;59.17;101757.88;5035782;28;1725;-54
2021/01/19 00:11:34;;;;;;;;;;;;;;;16.53;59.67;101758.91;5035573;28;1893;-54
2021/01/19 00:13:59;;;;;;;;;;;;;;;16.55;59.27;101767.66;5035962;28;1721;-55
2021/01/19 00:16:24;;;;;;;;;;;;;;;16.45;59.51;101750.50;5035793;28;1628;-54
2021/01/19 00:18:50;;;;;;;;;;;;;;;16.46;59.31;101763.75;5035735;28;1691;-54
2021/01/19 00:21:15;;;;;;;;;;;;;;;16.49;60.34;101768.06;5035543;28;1676;-54
2021/01/19 00:23:40;;;;;;;;;;;;;;;16.46;59.12;101769.09;5035295;28;1418;-54
2021/01/19 00:26:05;;;;;;;;;;;;;;;16.43;59.57;101768.44;5035266;28;1543;-54
2021/01/19 00:28:31;;;;;;;;;;;;;;;16.38;60.29;101759.88;5035694;28;1683;-54
2021/01/19 00:30:56;;;;;;;;;;;;;;;16.37;60.66;101769.66;5035630;28;1957;-54
2021/01/19 00:33:21;;;;;;;;;;;;;;;16.35;59.72;101768.03;5035143;28;1535;-54
2021/01/19 00:35:47;;;;;;;;;;;;;;;16.35;60.17;101755.56;5034021;28;1721;-54
2021/01/19 00:38:12;;;;;;;;;;;;;;;16.32;59.93;101774.44;5034844;28;1714;-54
2021/01/19 00:40:37;;;;;;;;;;;;;;;16.33;59.76;101764.63;5035240;28;1703;-54
2021/01/19 00:43:02;;;;;;;;;;;;;;;16.29;59.21;101767.50;5033238;28;1540;-54
2021/01/19 00:45:28;;;;;;;;;;;;;;;16.24;59.59;101753.56;5035117;28;1864;-54
2021/01/19 00:47:53;;;;;;;;;;;;;;;16.26;59.55;101758.81;5035370;28;1679;-54
2021/01/19 00:50:18;;;;;;;;;;;;;;;16.23;59.72;101762.50;5034708;28;2057;-54
2021/01/19 00:52:44;;;;;;;;;;;;;;;16.23;59.58;101757.16;5035302;28;1570;-54
2021/01/19 00:55:10;;;;;;;;;;;;;;;16.20;60.06;101749.34;5034834;28;1693;-54
2021/01/19 00:57:35;;;;;;;;;;;;;;;16.19;59.77;101750.28;5034663;28;1492;-54
2021/01/19 01:00:03;;;;;;;;;;;;;;;16.15;59.52;101754.09;5035044;28;1711;-54
2021/01/19 01:02:28;;;;;;;;;;;;;;;16.17;59.51;101752.19;5027272;28;1718;-54
2021/01/19 01:04:53;;;;;;;;;;;;;;;16.16;60.13;101745.16;5034743;28;1675;-54
2021/01/19 01:07:19;;;;;;;;;;;;;;;16.15;59.38;101767.44;5034868;28;1527;-54
2021/01/19 01:09:44;;;;;;;;;;;;;;;16.13;60.24;101761.34;5034489;28;1914;-54
2021/01/19 01:12:09;;;;;;;;;;;;;;;16.13;59.42;101758.66;5034373;28;1717;-54
2021/01/19 01:14:34;;;;;;;;;;;;;;;16.11;59.90;101757.91;5034422;28;1784;-54
2021/01/19 01:17:00;;;;;;;;;;;;;;;16.12;59.21;101772.97;5034768;28;1703;-56
2021/01/19 01:19:25;;;;;;;;;;;;;;;16.13;59.13;101768.50;5034106;28;1679;-54
2021/01/19 01:21:50;;;;;;;;;;;;;;;16.10;60.36;101759.72;5034397;28;1770;-54
2021/01/19 01:24:16;;;;;;;;;;;;;;;16.09;59.55;101762.47;5034299;28;1776;-54
2021/01/19 01:26:41;;;;;;;;;;;;;;;16.10;59.29;101756.19;5034159;28;1770;-54
2021/01/19 01:29:06;;;;;;;;;;;;;;;16.10;59.68;101761.53;5034027;28;1724;-54
2021/01/19 01:31:32;;;;;;;;;;;;;;;16.09;59.83;101765.13;5033774;28;2006;-54
2021/01/19 01:33:57;;;;;;;;;;;;;;;16.08;59.02;101758.94;5034277;28;1772;-54
2021/01/19 01:36:22;;;;;;;;;;;;;;;16.07;59.16;101756.38;5034045;28;1675;-54
2021/01/19 01:38:48;;;;;;;;;;;;;;;16.02;59.11;101739.81;5034108;28;1699;-54
2021/01/19 01:41:17;;;;;;;;;;;;;;;16.01;60.16;101751.41;5034118;28;1707;-54
2021/01/19 01:43:42;;;;;;;;;;;;;;;15.99;59.02;101750.63;5034299;28;1454;-54
2021/01/19 01:46:11;;;;;;;;;;;;;;;15.98;59.37;101749.78;5034103;28;1566;-55
2021/01/19 01:48:41;;;;;;;;;;;;;;;15.98;59.99;101765.78;5034405;28;1742;-54
2021/01/19 01:51:08;;;;;;;;;;;;;;;15.99;59.47;101756.81;5033505;28;1898;-54
2021/01/19 01:53:33;;;;;;;;;;;;;;;15.91;60.12;101741.28;5033996;28;1639;-54
2021/01/19 01:55:58;;;;;;;;;;;;;;;15.94;60.40;101750.94;5032998;28;1750;-54
2021/01/19 01:58:25;;;;;;;;;;;;;;;15.94;60.44;101744.75;5033475;28;1513;-54
2021/01/19 02:00:50;;;;;;;;;;;;;;;15.91;60.68;101741.28;5033909;28;1789;-54
2021/01/19 02:03:15;;;;;;;;;;;;;;;15.89;60.10;101750.31;5033848;28;1719;-54
2021/01/19 02:05:40;;;;;;;;;;;;;;;15.87;60.41;101741.56;5033503;28;1987;-54
2021/01/19 02:08:09;;;;;;;;;;;;;;;15.86;60.42;101746.03;5033760;28;2046;-54
2021/01/19 02:10:37;;;;;;;;;;;;;;;15.87;60.05;101739.75;5033442;28;1953;-54
2021/01/19 02:13:18;;;;;;;;;;;;;;;15.89;59.87;101750.31;5033909;28;1736;-55
2021/01/19 02:15:47;;;;;;;;;;;;;;;15.87;60.40;101745.06;5033996;28;1772;-54
2021/01/19 02:18:31;;;;;;;;;;;;;;;15.83;60.02;101732.88;5033515;28;1623;-54
2021/01/19 02:21:16;;;;;;;;;;;;;;;15.85;59.56;101744.31;5033656;28;1571;-54
2021/01/19 02:24:08;;;;;;;;;;;;;;;15.85;59.43;101746.97;5027628;28;1942;-54
2021/01/19 02:26:36;;;;;;;;;;;;;;;15.84;59.68;101747.94;5030955;28;2018;-54
2021/01/19 02:29:17;;;;;;;;;;;;;;;15.82;59.95;101741.84;5033165;28;1835;-54
2021/01/19 02:31:51;;;;;;;;;;;;;;;15.82;58.98;101755.19;5032866;28;1897;-54
2021/01/19 02:34:19;;;;;;;;;;;;;;;15.80;59.98;101741.06;5032188;28;1754;-54
2021/01/19 02:37:03;;;;;;;;;;;;;;;15.83;60.63;101762.22;5031685;28;1750;-55
2021/01/19 02:39:47;;;;;;;;;;;;;;;15.79;60.15;101742.00;5032595;28;1531;-54
2021/01/19 02:42:15;;;;;;;;;;;;;;;15.78;60.01;101724.31;5031893;28;1719;-54
2021/01/19 02:44:40;;;;;;;;;;;;;;;15.77;59.96;101735.06;5032948;28;1756;-55
2021/01/19 02:47:06;;;;;;;;;;;;;;;15.78;59.72;101729.63;5033183;28;1680;-54
2021/01/19 02:49:31;;;;;;;;;;;;;;;15.81;59.66;101731.25;5033663;28;1074;-54
2021/01/19 02:51:58;;;;;;;;;;;;;;;15.75;60.02;101724.47;5033034;28;1914;-54
2021/01/19 02:54:23;;;;;;;;;;;;;;;15.74;60.29;101741.44;5033265;28;1399;-55
2021/01/19 02:56:59;;;;;;;;;;;;;;;15.77;59.44;101735.06;5033537;28;1577;-54
2021/01/19 02:59:45;;;;;;;;;;;;;;;15.74;59.84;101736.09;5033346;28;1452;-54
2021/01/19 03:02:11;;;;;;;;;;;;;;;15.69;59.66;101725.66;5020848;28;1549;-54
2021/01/19 03:04:38;;;;;;;;;;;;;;;15.71;60.01;101733.56;5033205;28;1545;-54
2021/01/19 03:07:05;;;;;;;;;;;;;;;15.69;59.97;101719.47;5035201;28;1586;-55
2021/01/19 03:09:31;;;;;;;;;;;;;;;15.67;59.68;101732.03;5036605;28;1487;-55
2021/01/19 03:11:59;;;;;;;;;;;;;;;15.69;59.93;101740.81;5050680;23;3568;-57
2021/01/19 03:14:24;;;;;;;;;;;;;;;15.64;59.89;101740.22;5036872;28;1658;-58
2021/01/19 03:16:50;;;;;;;;;;;;;;;15.62;59.76;101731.47;5037560;28;1589;-61
2021/01/19 03:19:18;;;;;;;;;;;;;;;15.60;59.74;101736.88;5037530;28;1556;-57
2021/01/19 03:21:43;;;;;;;;;;;;;;;15.62;59.28;101744.81;5024589;28;1453;-62
2021/01/19 03:24:08;;;;;;;;;;;;;;;15.64;60.15;101743.75;5037352;28;1643;-61
2021/01/19 03:26:34;;;;;;;;;;;;;;;15.62;60.43;101732.31;5038166;28;1504;-62
2021/01/19 03:28:59;;;;;;;;;;;;;;;15.60;59.90;101725.38;5037879;28;1458;-61
2021/01/19 03:31:25;;;;;;;;;;;;;;;15.62;59.45;101728.81;5038029;28;1926;-61
2021/01/19 03:33:50;;;;;;;;;;;;;;;15.61;59.79;101737.72;5037892;28;1564;-62
2021/01/19 03:36:15;;;;;;;;;;;;;;;15.60;59.14;101728.88;5037736;28;1567;-61
2021/01/19 03:38:41;;;;;;;;;;;;;;;15.60;59.07;101736.03;5037713;28;1552;-61
2021/01/19 03:41:06;;;;;;;;;;;;;;;15.59;59.98;101739.63;5037182;28;1485;-57
2021/01/19 03:43:32;;;;;;;;;;;;;;;15.57;59.70;101738.84;5037424;28;1520;-68
2021/01/19 03:45:57;;;;;;;;;;;;;;;15.59;60.28;101752.97;5037181;28;1303;-57
2021/01/19 03:48:23;;;;;;;;;;;;;;;15.56;59.73;101751.34;5035370;28;1489;-61
2021/01/19 03:50:48;;;;;;;;;;;;;;;15.59;60.31;101764.47;5037431;28;1885;-57
2021/01/19 03:53:14;;;;;;;;;;;;;;;15.55;59.79;101746.94;5037476;28;1587;-61
2021/01/19 03:55:39;;;;;;;;;;;;;;;15.57;59.92;101752.19;5037658;28;1458;-61
2021/01/19 03:58:05;;;;;;;;;;;;;;;15.56;60.19;101747.78;5037126;28;1564;-57
2021/01/19 04:00:30;;;;;;;;;;;;;;;15.54;59.16;101755.03;5036363;28;1363;-57
2021/01/19 04:02:55;;;;;;;;;;;;;;;15.53;60.12;101756.84;5054854;28;1474;-57
2021/01/19 04:05:21;;;;;;;;;;;;;;;15.50;59.10;101752.53;5056295;28;1373;-57
2021/01/19 04:07:46;;;;;;;;;;;;;;;15.51;59.88;101759.59;5056651;28;1444;-57
2021/01/19 04:10:14;;;;;;;;;;;;;;;15.51;59.91;101764.91;5056275;28;1894;-57
2021/01/19 04:12:41;;;;;;;;;;;;;;;15.49;58.89;101766.81;5055327;28;1445;-59
2021/01/19 04:15:07;;;;;;;;;;;;;;;15.47;59.80;101778.50;5056313;28;1429;-58
2021/01/19 04:17:32;;;;;;;;;;;;;;;15.49;59.52;101784.63;5056700;28;1401;-61
2021/01/19 04:19:58;;;;;;;;;;;;;;;15.44;58.89;101776.91;5056127;28;1389;-57
2021/01/19 04:22:24;;;;;;;;;;;;;;;15.41;59.57;101777.06;5056635;28;1413;-58
2021/01/19 04:24:50;;;;;;;;;;;;;;;15.44;58.92;101779.56;5056745;28;1464;-57
2021/01/19 04:27:15;;;;;;;;;;;;;;;15.42;59.14;101776.13;5056570;28;1378;-57
2021/01/19 04:29:40;;;;;;;;;;;;;;;15.39;58.80;101786.94;5056509;28;1374;-58
2021/01/19 04:32:05;;;;;;;;;;;;;;;15.37;59.79;101772.84;5056042;28;1909;-58
2021/01/19 04:34:31;;;;;;;;;;;;;;;15.37;59.94;101783.50;5055974;28;1440;-57
2021/01/19 04:36:56;;;;;;;;;;;;;;;15.37;59.31;101783.50;5056241;28;1386;-61
2021/01/19 04:39:21;;;;;;;;;;;;;;;15.34;59.09;101781.03;5055718;28;1433;-57
2021/01/19 04:41:47;;;;;;;;;;;;;;;15.35;58.90;101774.75;5056041;28;1274;-61
2021/01/19 04:44:13;;;;;;;;;;;;;;;15.34;59.14;101782.81;5055722;28;1350;-57
2021/01/19 04:46:39;;;;;;;;;;;;;;;15.32;58.75;101785.59;5055905;28;1385;-57
2021/01/19 04:49:06;;;;;;;;;;;;;;;15.36;58.45;101781.81;5055607;28;1402;-61
2021/01/19 04:51:33;;;;;;;;;;;;;;;15.38;59.49;101779.91;5055675;28;1898;-57
2021/01/19 04:54:00;;;;;;;;;;;;;;;15.34;59.59;101767.72;5055949;28;1374;-61
2021/01/19 04:56:29;;;;;;;;;;;;;;;15.34;59.10;101775.69;5056049;28;1358;-61
2021/01/19 04:58:55;;;;;;;;;;;;;;;15.34;59.06;101788.16;5056106;28;1405;-61
2021/01/19 05:01:36;;;;;;;;;;;;;;;15.33;58.34;101795.28;5055233;28;1412;-61
2021/01/19 05:04:16;;;;;;;;;;;;;;;15.30;58.50;101784.81;5055501;28;1436;-57
2021/01/19 05:06:41;;;;;;;;;;;;;;;15.28;58.47;101795.56;5055568;28;1459;-58
2021/01/19 05:09:07;;;;;;;;;;;;;;;15.24;59.09;101787.81;5055135;28;1385;-61
2021/01/19 05:11:36;;;;;;;;;;;;;;;15.25;58.30;101795.72;5055653;28;1989;-57
2021/01/19 05:14:02;;;;;;;;;;;;;;;15.27;58.33;101795.63;5055296;28;1370;-57
2021/01/19 05:16:27;;;;;;;;;;;;;;;15.30;58.26;101787.47;5054975;28;1559;-57
2021/01/19 05:18:53;;;;;;;;;;;;;;;15.29;58.47;101804.41;5055575;28;1318;-57
2021/01/19 05:21:18;;;;;;;;;;;;;;;15.29;58.95;101799.94;5055002;28;1464;-58
2021/01/19 05:23:44;;;;;;;;;;;;;;;15.30;58.72;101798.16;5055421;28;1385;-57
2021/01/19 05:26:11;;;;;;;;;;;;;;;15.26;58.33;101797.44;5055469;28;1401;-61
2021/01/19 05:28:38;;;;;;;;;;;;;;;15.25;58.20;101802.84;5054103;28;1397;-61
2021/01/19 05:31:24;;;;;;;;;;;;;;;15.29;58.20;101807.06;5053898;28;1983;-58
2021/01/19 05:33:52;;;;;;;;;;;;;;;15.27;59.28;101808.97;5051281;28;1373;-57
2021/01/19 05:36:19;;;;;;;;;;;;;;;15.23;58.89;101807.41;5052504;28;1210;-57
2021/01/19 05:38:48;;;;;;;;;;;;;;;15.21;59.04;101804.81;5054645;28;1574;-57
2021/01/19 05:41:31;;;;;;;;;;;;;;;15.24;58.97;101819.78;5053274;28;1326;-61
2021/01/19 05:44:17;;;;;;;;;;;;;;;15.22;59.29;101808.34;5051039;28;1461;-61
2021/01/19 05:46:44;;;;;;;;;;;;;;;15.21;58.98;101819.97;5053882;28;1473;-58
2021/01/19 05:49:14;;;;;;;;;;;;;;;15.20;58.79;101802.25;5054399;28;1447;-58
2021/01/19 05:51:41;;;;;;;;;;;;;;;15.15;59.03;101820.31;5053973;28;1889;-61
2021/01/19 05:54:07;;;;;;;;;;;;;;;15.15;59.31;101814.97;5054538;28;1373;-58
2021/01/19 05:56:33;;;;;;;;;;;;;;;15.09;58.88;101811.69;5054621;28;1270;-57
2021/01/19 05:59:00;;;;;;;;;;;;;;;15.13;58.89;101809.72;5054986;28;1432;-60
2021/01/19 06:01:33;;;;;;;;;;;;;;;15.14;58.93;101813.25;5054283;28;1396;-61
2021/01/19 06:04:02;;;;;;;;;;;;;;;15.16;58.87;101814.00;5053782;28;1393;-61
2021/01/19 06:06:28;;;;;;;;;;;;;;;15.16;59.13;101806.91;5053572;28;1365;-57
2021/01/19 06:08:57;;;;;;;;;;;;;;;15.17;59.31;101818.41;5054049;28;1425;-58
2021/01/19 06:11:22;;;;;;;;;;;;;;;15.16;59.02;101814.00;5053909;28;1973;-61
2021/01/19 06:13:49;;;;;;;;;;;;;;;15.19;57.94;101821.84;5054226;28;1385;-57
2021/01/19 06:16:20;;;;;;;;;;;;;;;15.15;58.75;101814.97;5054298;28;1322;-57
2021/01/19 06:18:45;;;;;;;;;;;;;;;15.15;58.88;101826.47;5054139;28;1278;-61
2021/01/19 06:21:24;;;;;;;;;;;;;;;15.15;58.73;101826.47;5053649;28;1468;-57
2021/01/19 06:23:49;;;;;;;;;;;;;;;15.16;58.53;101827.34;5049345;28;1369;-57
2021/01/19 06:26:14;;;;;;;;;;;;;;;15.16;58.65;101822.91;5052486;28;1417;-62
2021/01/19 06:28:43;;;;;;;;;;;;;;;15.34;58.30;101826.34;5053545;28;1461;-61
2021/01/19 06:31:12;;;;;;;;;;;;;;;15.64;57.02;101822.88;5053736;28;1909;-61
2021/01/19 06:33:38;;;;;;;;;;;;;;;15.86;56.84;101828.72;5054446;28;1473;-57
2021/01/19 06:36:04;;;;;;;;;;;;;;;16.07;57.03;101833.75;5053679;28;1448;-57
2021/01/19 06:38:29;;;;;;;;;;;;;;;16.23;55.76;101817.69;5053595;28;1374;-58
2021/01/19 06:40:55;;;;;;;;;;;;;;;16.41;56.26;101818.38;5042245;28;1270;-58
2021/01/19 06:43:24;;;;;;;;;;;;;;;16.58;56.09;101820.91;5053076;28;1413;-58
2021/01/19 06:45:51;;;;;;;;;;;;;;;16.73;55.00;101829.75;5053979;28;1424;-61
2021/01/19 06:48:16;;;;;;;;;;;;;;;16.79;56.23;101824.06;5053499;28;1491;-62
2021/01/19 06:50:43;;;;;;;;;;;;;;;16.93;56.11;101831.25;5053307;28;1959;-57
2021/01/19 06:53:22;;;;;;;;;;;;;;;17.10;55.85;101820.34;5053613;28;1362;-61
2021/01/19 06:55:59;;;;;;;;;;;;;;;17.50;53.70;101831.16;5053603;28;1413;-61
2021/01/19 06:58:43;;;;;;;;;;;;;;;17.57;54.36;101828.09;5053272;28;1424;-57
2021/01/19 07:01:11;;;;;;;;;;;;;;;17.66;53.88;101830.16;5053224;28;1523;-57
2021/01/19 07:03:37;;;;;;;;;;;;;;;17.96;53.29;101832.63;5050438;28;1334;-58
2021/01/19 07:06:06;;;;;;;;;;;;;;;18.08;53.08;101841.66;5048657;28;1354;-58
2021/01/19 07:08:40;;;;;;;;;;;;;;;18.31;52.38;101841.94;5046802;28;1235;-61
2021/01/19 07:11:11;;;;;;;;;;;;;;;18.30;52.57;101838.38;5053087;28;1913;-57
2021/01/19 07:13:38;;;;;;;;;;;;;;;18.22;53.54;101832.72;5053200;28;1389;-57
2021/01/19 07:16:07;;;;;;;;;;;;;;;18.36;53.18;101847.84;5053202;28;1464;-57
2021/01/19 07:18:50;;;;;;;;;;;;;;;18.57;53.43;101842.84;5053659;28;1378;-62
2021/01/19 07:21:16;;;;;;;;;;;;;;;18.79;53.68;101848.44;5053840;28;1445;-61
2021/01/19 07:24:00;;;;;;;;;;;;;;;18.68;54.29;101849.16;5053777;28;1393;-62
2021/01/19 07:26:35;;;;;;;;;;;;;;;18.77;54.83;101844.13;5053662;28;1346;-62
2021/01/19 07:29:00;;;;;;;;;;;;;;;18.69;55.51;101848.19;5049993;28;1243;-58
2021/01/19 07:31:26;;;;;;;;;;;;;;;18.63;55.39;101853.97;5052548;28;1914;-58
2021/01/19 07:33:55;;;;;;;;;;;;;;;18.68;55.09;101862.56;5051016;28;1484;-62
2021/01/19 07:36:22;;;;;;;;;;;;;;;18.79;54.14;101859.16;5052876;28;1290;-62
2021/01/19 07:38:48;;;;;;;;;;;;;;;18.76;54.21;101855.78;5042034;28;1235;-58
2021/01/19 07:41:26;;;;;;;;;;;;;;;18.72;54.71;101846.25;5033238;28;1643;-62
2021/01/19 07:43:51;;;;;;;;;;;;;;;18.59;55.07;101854.28;5034355;28;765;-57
2021/01/19 07:46:21;;;;;;;;;;;;;;;18.51;55.17;101860.19;5034077;28;801;-57
2021/01/19 07:48:46;;;;;;;;;;;;;;;18.48;56.02;101866.63;5051235;28;1302;-62
2021/01/19 07:51:12;;;;;;;;;;;;;;;18.46;55.21;101862.31;5053487;28;1882;-57
2021/01/19 07:53:53;;;;;;;;;;;;;;;18.44;55.35;101867.78;5054694;28;1583;-57
2021/01/19 07:56:23;;;;;;;;;;;;;;;18.37;55.38;101863.81;5057012;28;1570;-57
2021/01/19 07:58:48;;;;;;;;;;;;;;;18.33;56.10;101867.66;5057520;28;1567;-61
2021/01/19 08:01:22;;;;;;;;;;;;;;;18.32;56.11;101865.06;5054663;28;1574;-62
2021/01/19 08:03:47;;;;;;;;;;;;;;;18.38;56.43;101865.53;5057778;28;1687;-62
2021/01/19 08:06:12;;;;;;;;;;;;;;;18.43;55.73;101884.81;5055910;28;1229;-62
2021/01/19 08:08:38;;;;;;;;;;;;;;;18.46;55.35;101875.69;5051826;28;1382;-62
2021/01/19 08:11:03;;;;;;;;;;;;;;;18.44;55.64;101874.94;5044961;28;1953;-57
2021/01/19 08:13:29;;;;;;;;;;;;;;;18.39;55.68;101861.03;5057186;28;1543;-57
2021/01/19 08:16:01;;;;;;;;;;;;;;;18.45;56.15;101868.63;5056511;28;1508;-62
2021/01/19 08:18:35;;;;;;;;;;;;;;;18.47;55.78;101848.81;5056441;28;1515;-58
2021/01/19 08:21:04;;;;;;;;;;;;;;;18.40;55.04;101850.22;5056457;28;1575;-57
2021/01/19 08:23:32;;;;;;;;;;;;;;;18.36;54.30;101847.84;5056737;28;1512;-57
2021/01/19 08:26:04;;;;;;;;;;;;;;;18.29;54.39;101853.59;5056980;28;1476;-61
2021/01/19 08:28:30;;;;;;;;;;;;;;;18.32;53.64;101859.72;5056623;28;1496;-62
2021/01/19 08:30:55;;;;;;;;;;;;;;;18.27;53.69;101884.13;5056180;28;1971;-57
2021/01/19 08:33:22;;;;;;;;;;;;;;;18.27;54.57;101874.28;5055930;28;1603;-61
2021/01/19 08:35:49;;;;;;;;;;;;;;;18.24;55.28;101870.94;5051759;28;1576;-62
2021/01/19 08:38:19;;;;;;;;;;;;;;;18.27;54.36;101876.97;5046967;28;1575;-63
2021/01/19 08:40:44;;;;;;;;;;;;;;;18.31;54.61;101874.09;5051635;28;1650;-69
2021/01/19 08:43:10;;;;;;;;;;;;;;;18.30;55.42;101865.16;5054967;28;1188;-68
2021/01/19 08:45:39;;;;;;;;;;;;;;;18.33;55.41;101878.38;5056424;28;776;-60
2021/01/19 08:48:06;;;;;;;;;;;;;;;18.33;55.64;101874.84;5051493;28;1310;-58
2021/01/19 08:50:34;;;;;;;;;;;;;;;18.27;55.41;101878.78;5034968;28;1890;-63
2021/01/19 08:53:05;;;;;;;;;;;;;;;18.31;55.97;101890.16;5035697;28;863;-67
2021/01/19 08:55:31;;;;;;;;;;;;;;;18.32;56.34;101886.50;5036056;28;769;-62
2021/01/19 08:57:57;;;;;;;;;;;;;;;18.36;55.29;101888.84;5035049;28;1245;-71
2021/01/19 09:00:24;;;;;;;;;;;;;;;18.29;55.98;101876.84;5052163;28;1017;-71
2021/01/19 09:02:49;;;;;;;;;;;;;;;18.27;55.98;101893.03;5054110;28;1459;-58
2021/01/19 09:05:28;;;;;;;;;;;;;;;18.31;55.84;101900.88;5055218;28;891;-59
2021/01/19 09:07:54;;;;;;;;;;;;;;;18.32;55.08;101902.56;5048629;28;938;-57
2021/01/19 09:10:20;;;;;;;;;;;;;;;18.28;55.17;101897.44;5034654;28;1902;-58
2021/01/19 09:12:45;;;;;;;;;;;;;;;18.28;55.56;101893.88;5035661;28;816;-62
2021/01/19 09:15:12;;;;;;;;;;;;;;;18.38;54.78;101902.16;5035722;28;813;-62
2021/01/19 09:17:38;;;;;;;;;;;;;;;18.40;55.13;101900.22;5034643;28;824;-59
2021/01/19 09:20:04;;;;;;;;;;;;;;;18.42;54.46;101887.59;5035102;28;927;-57
2021/01/19 09:22:29;;;;;;;;;;;;;;;18.35;55.28;101876.44;5040266;28;1301;-61
2021/01/19 09:24:55;;;;;;;;;;;;;;;18.36;54.65;101878.13;5051477;28;1238;-62
2021/01/19 09:27:20;;;;;;;;;;;;;;;18.37;54.36;101873.66;5055069;28;768;-58
2021/01/19 09:29:46;;;;;;;;;;;;;;;18.34;54.29;101876.53;5055394;28;838;-58
2021/01/19 09:32:12;;;;;;;;;;;;;;;18.41;54.78;101873.34;5054901;28;1909;-62
2021/01/19 09:34:38;;;;;;;;;;;;;;;18.37;54.28;101869.16;5054849;28;829;-58
2021/01/19 09:37:04;;;;;;;;;;;;;;;18.39;54.42;101872.59;5036703;28;1255;-63
2021/01/19 09:39:31;;;;;;;;;;;;;;;18.38;54.04;101883.41;5035452;28;710;-57
2021/01/19 09:41:57;;;;;;;;;;;;;;;18.45;53.97;101866.81;5035025;28;755;-65
2021/01/19 09:44:23;;;;;;;;;;;;;;;18.40;53.63;101889.50;5035200;28;737;-59
2021/01/19 09:46:52;;;;;;;;;;;;;;;18.36;54.05;101883.50;5046476;28;951;-66
2021/01/19 09:49:18;;;;;;;;;;;;;;;18.30;54.15;101878.56;5054494;28;777;-60
2021/01/19 09:51:43;;;;;;;;;;;;;;;18.35;54.54;101870.22;5053974;28;1949;-60
2021/01/19 09:54:08;;;;;;;;;;;;;;;18.36;53.89;101863.91;5053605;28;1149;-65
2021/01/19 09:56:33;;;;;;;;;;;;;;;18.31;54.66;101839.28;5054552;28;867;-61
2021/01/19 09:59:06;;;;;;;;;;;;;;;18.36;54.32;101850.50;5053893;28;1247;-57
2021/01/19 10:01:31;;;;;;;;;;;;;;;18.44;53.87;101854.41;5054457;28;1431;-67
2021/01/19 10:03:57;;;;;;;;;;;;;;;18.35;54.09;101855.00;5054630;28;778;-65
2021/01/19 10:06:24;;;;;;;;;;;;;;;18.43;54.37;101851.81;5055042;28;810;-59
2021/01/19 10:08:52;;;;;;;;;;;;;;;18.40;54.22;101841.31;5054558;28;881;-59
2021/01/19 10:11:46;;;;;;;;;;;;;;;18.35;54.22;101844.31;5053838;28;1959;-59
2021/01/19 10:14:18;;;;;;;;;;;;;;;18.37;54.13;101837.03;5040879;28;1194;-59
2021/01/19 10:16:47;;;;;;;;;;;;;;;18.33;54.10;101832.00;5053853;28;891;-59
2021/01/19 10:19:22;;;;;;;;;;;;;;;18.36;54.25;101837.97;5054225;28;802;-61
2021/01/19 10:21:49;;;;;;;;;;;;;;;18.39;53.67;101818.19;5054246;28;957;-60
2021/01/19 10:24:15;;;;;;;;;;;;;;;18.43;53.98;101819.69;5054578;28;798;-60
2021/01/19 10:26:43;;;;;;;;;;;;;;;18.24;53.72;101825.44;5054005;28;986;-60
2021/01/19 10:29:08;;;;;;;;;;;;;;;18.17;53.06;101827.69;5054069;28;1492;-60
2021/01/19 10:31:44;;;;;;;;;;;;;;;18.15;53.58;101831.44;5054684;28;2005;-60
2021/01/19 10:34:14;;;;;;;;;;;;;;;18.03;53.11;101806.34;5044323;28;1381;-60
2021/01/19 10:36:50;;;;;;;;;;;;;;;17.90;52.24;101822.34;5054308;28;1729;-59
2021/01/19 10:39:15;;;;;;;;;;;;;;;16.82;54.51;101825.72;5053655;28;1666;-59
2021/01/19 10:41:40;;;;;;;;;;;;;;;16.37;53.01;101811.53;5055800;28;1516;-60
2021/01/19 10:44:06;;;;;;;;;;;;;;;16.13;52.71;101803.19;5053946;28;1501;-60
2021/01/19 10:46:31;;;;;;;;;;;;;;;15.94;52.91;101811.44;5053760;28;1484;-59
2021/01/19 10:49:06;;;;;;;;;;;;;;;15.75;51.31;101804.47;5053337;28;1643;-59
2021/01/19 10:51:33;;;;;;;;;;;;;;;15.43;51.57;101820.47;5040425;28;1890;-58
2021/01/19 10:54:01;;;;;;;;;;;;;;;15.95;50.70;101810.47;5054033;28;1497;-59
2021/01/19 10:56:27;;;;;;;;;;;;;;;16.31;47.67;101802.06;5054227;28;1467;-57
2021/01/19 10:58:52;;;;;;;;;;;;;;;16.32;48.46;101797.63;5053853;28;1587;-59
2021/01/19 11:01:17;;;;;;;;;;;;;;;16.66;48.34;101793.72;5053898;28;1563;-58
2021/01/19 11:03:42;;;;;;;;;;;;;;;17.10;47.75;101803.47;5053802;28;1638;-60
2021/01/19 11:06:07;;;;;;;;;;;;;;;17.20;46.42;101795.72;5054289;28;1523;-63
2021/01/19 11:08:33;;;;;;;;;;;;;;;17.44;45.17;101804.81;5051647;28;1265;-59
2021/01/19 11:10:58;;;;;;;;;;;;;;;17.71;45.97;101790.59;5052161;28;1886;-59
2021/01/19 11:13:25;;;;;;;;;;;;;;;17.81;46.82;101789.03;5046958;28;1639;-59
2021/01/19 11:15:50;;;;;;;;;;;;;;;17.99;45.71;101783.44;5044106;28;1518;-58
2021/01/19 11:18:16;;;;;;;;;;;;;;;17.97;45.80;101796.06;5045685;28;1462;-59
2021/01/19 11:20:41;;;;;;;;;;;;;;;18.03;45.67;101790.28;5045551;28;1385;-59
2021/01/19 11:23:06;;;;;;;;;;;;;;;18.02;45.89;101789.41;5034493;28;753;-59
2021/01/19 11:25:31;;;;;;;;;;;;;;;18.03;45.90;101780.44;5050076;28;1461;-59
2021/01/19 11:27:56;;;;;;;;;;;;;;;18.05;46.11;101780.34;5045346;28;1521;-59
2021/01/19 11:30:22;;;;;;;;;;;;;;;18.06;46.34;101774.88;5056254;28;1902;-59
2021/01/19 11:32:47;;;;;;;;;;;;;;;18.06;47.37;101766.84;5058540;28;788;-59
2021/01/19 11:35:12;;;;;;;;;;;;;;;18.03;46.58;101750.13;5057983;28;1347;-59
2021/01/19 11:37:38;;;;;;;;;;;;;;;18.06;47.26;101764.19;5043125;28;1389;-59
2021/01/19 11:40:03;;;;;;;;;;;;;;;18.00;47.12;101758.38;5054480;28;1412;-59
2021/01/19 11:42:28;;;;;;;;;;;;;;;17.98;47.55;101750.44;5057451;28;1190;-59
2021/01/19 11:44:53;;;;;;;;;;;;;;;17.91;47.27;101761.69;5057118;28;1364;-59
2021/01/19 11:47:19;;;;;;;;;;;;;;;17.93;47.30;101752.59;5048799;28;1423;-59
2021/01/19 11:49:44;;;;;;;;;;;;;;;17.92;47.11;101740.16;5057003;28;1547;-59
2021/01/19 11:52:09;;;;;;;;;;;;;;;18.01;46.61;101744.88;5056818;28;1922;-59
2021/01/19 11:54:35;;;;;;;;;;;;;;;17.97;47.67;101737.19;5050644;28;1579;-59
2021/01/19 11:57:01;;;;;;;;;;;;;;;17.93;47.03;101728.50;5056319;28;1536;-59
2021/01/19 11:59:27;;;;;;;;;;;;;;;18.00;47.49;101731.59;5056054;28;1586;-59
2021/01/19 12:01:53;;;;;;;;;;;;;;;17.95;47.85;101723.06;5054360;28;1654;-59
2021/01/19 12:04:19;;;;;;;;;;;;;;;17.91;47.60;101718.88;5044372;28;1614;-59
2021/01/19 12:06:44;;;;;;;;;;;;;;;17.93;47.64;101714.28;5050030;28;1531;-59
2021/01/19 12:09:12;;;;;;;;;;;;;;;17.95;48.56;101723.06;5054688;28;1653;-59
2021/01/19 12:11:41;;;;;;;;;;;;;;;18.04;49.20;101720.56;5056285;28;1879;-59
2021/01/19 12:14:06;;;;;;;;;;;;;;;18.20;47.98;101732.91;5045847;28;1446;-59
2021/01/19 12:16:34;;;;;;;;;;;;;;;18.27;48.56;101735.03;5057476;28;1598;-59
2021/01/19 12:18:59;;;;;;;;;;;;;;;18.22;48.94;101733.66;5045161;28;1310;-59
2021/01/19 12:21:25;;;;;;;;;;;;;;;18.18;48.42;101730.31;5037450;28;983;-59
2021/01/19 12:23:50;;;;;;;;;;;;;;;18.15;48.46;101733.22;5056341;28;1284;-59
2021/01/19 12:26:16;;;;;;;;;;;;;;;18.07;49.46;101732.91;5057292;28;1639;-59
2021/01/19 12:28:42;;;;;;;;;;;;;;;18.08;49.10;101734.59;5057211;28;1150;-59
2021/01/19 12:31:08;;;;;;;;;;;;;;;18.04;49.19;101727.75;5055753;28;1895;-59
2021/01/19 12:33:33;;;;;;;;;;;;;;;17.98;49.10;101712.97;5057452;28;802;-59
2021/01/19 12:35:59;;;;;;;;;;;;;;;18.06;48.93;101712.44;5038733;28;1319;-59
2021/01/19 12:38:24;;;;;;;;;;;;;;;18.06;48.50;101696.38;5037086;28;907;-59
2021/01/19 12:40:49;;;;;;;;;;;;;;;18.10;48.61;101695.19;5036540;28;789;-59
2021/01/19 12:43:15;;;;;;;;;;;;;;;18.10;48.76;101692.53;5044750;28;1184;-59
2021/01/19 12:45:41;;;;;;;;;;;;;;;18.12;49.16;101687.91;5041006;28;1477;-59
2021/01/19 12:48:07;;;;;;;;;;;;;;;18.20;48.20;101696.25;5046275;28;1444;-59
2021/01/19 12:50:35;;;;;;;;;;;;;;;18.18;48.76;101700.03;5052049;28;1947;-59